createdAt,value
2022-10-11T00:02:17.977Z,9.99
2022-10-11T00:04:50.704Z,9.93
2022-10-11T00:07:21.212Z,9.98
2022-10-11T00:09:51.428Z,9.89
2022-10-11T00:12:21.618Z,9.96
2022-10-11T00:14:51.763Z,10.07
2022-10-11T00:17:21.901Z,10.06
2022-10-11T00:19:52.132Z,10.01
2022-10-11T00:22:22.272Z,9.98
2022-10-11T00:24:53.367Z,10.00
2022-10-11T00:27:23.510Z,9.94
2022-10-11T00:29:53.745Z,9.92
2022-10-11T00:32:23.961Z,10.04
2022-10-11T00:34:56.309Z,10.04
2022-10-11T00:37:26.558Z,9.97
2022-10-11T00:39:57.073Z,9.94
2022-10-11T00:42:27.264Z,9.92
2022-10-11T00:45:28.321Z,10.02
2022-10-11T00:48:07.678Z,9.97
2022-10-11T00:50:38.121Z,9.82
2022-10-11T00:53:11.531Z,9.96
2022-10-11T00:55:51.813Z,9.89
2022-10-11T00:58:23.840Z,9.95
2022-10-11T01:00:54.569Z,9.85
2022-10-11T01:03:27.016Z,9.89
2022-10-11T01:05:57.260Z,9.86
2022-10-11T01:08:28.039Z,9.63
2022-10-11T01:10:58.971Z,9.76
2022-10-11T01:13:52.354Z,9.79
2022-10-11T01:16:42.906Z,9.76
2022-10-11T01:19:15.658Z,9.74
2022-10-11T01:21:51.948Z,9.59
2022-10-11T01:24:42.368Z,9.60
2022-10-11T01:27:58.182Z,9.52
2022-10-11T01:30:29.065Z,9.65
2022-10-11T01:33:43.031Z,9.32
2022-10-11T01:36:31.650Z,9.52
2022-10-11T01:39:16.840Z,9.37
2022-10-11T01:41:51.353Z,9.46
2022-10-11T01:44:27.351Z,9.20
2022-10-11T01:46:57.456Z,9.39
2022-10-11T01:49:27.613Z,9.43
2022-10-11T01:52:01.248Z,9.41
2022-10-11T01:55:03.845Z,9.42
2022-10-11T01:57:39.182Z,9.43
2022-10-11T02:00:17.573Z,9.40
2022-10-11T02:03:00.426Z,9.25
2022-10-11T02:06:09.174Z,9.49
2022-10-11T02:08:55.457Z,9.25
2022-10-11T02:11:30.238Z,9.23
2022-10-11T02:14:18.602Z,9.19
2022-10-11T02:16:57.978Z,9.15
2022-10-11T02:19:33.048Z,9.16
2022-10-11T02:22:14.130Z,9.06
2022-10-11T02:24:49.562Z,9.10
2022-10-11T02:27:25.797Z,9.11
2022-10-11T02:29:59.938Z,9.27
2022-10-11T02:32:32.375Z,9.30
2022-10-11T02:35:03.811Z,9.24
2022-10-11T02:37:44.962Z,9.29
2022-10-11T02:40:27.844Z,9.18
2022-10-11T02:43:06.955Z,9.12
2022-10-11T02:45:42.271Z,9.38
2022-10-11T02:48:12.890Z,9.35
2022-10-11T02:50:43.796Z,9.26
2022-10-11T02:53:13.852Z,9.36
2022-10-11T02:55:44.070Z,9.30
2022-10-11T02:58:14.318Z,9.30
2022-10-11T03:00:44.765Z,9.44
2022-10-11T03:03:15.052Z,9.34
2022-10-11T03:05:45.379Z,9.42
2022-10-11T03:08:17.381Z,9.52
2022-10-11T03:10:47.817Z,9.44
2022-10-11T03:13:18.591Z,9.48
2022-10-11T03:16:02.828Z,9.46
2022-10-11T03:18:33.654Z,9.58
2022-10-11T03:21:03.991Z,9.54
2022-10-11T03:23:34.210Z,9.49
2022-10-11T03:26:04.681Z,9.59
2022-10-11T03:28:35.102Z,9.63
2022-10-11T03:31:05.312Z,9.62
2022-10-11T03:33:35.562Z,9.59
2022-10-11T03:36:07.292Z,9.55
2022-10-11T03:38:37.841Z,9.58
2022-10-11T03:41:08.296Z,9.65
2022-10-11T03:43:38.429Z,9.59
2022-10-11T03:46:08.907Z,9.51
2022-10-11T03:48:39.632Z,9.47
2022-10-11T03:51:09.883Z,9.67
2022-10-11T03:53:40.333Z,9.45
2022-10-11T03:56:10.842Z,9.67
2022-10-11T03:58:41.797Z,9.68
2022-10-11T04:01:12.017Z,9.52
2022-10-11T04:03:42.168Z,9.61
2022-10-11T04:06:12.258Z,9.71
2022-10-11T04:08:42.456Z,9.72
2022-10-11T04:11:12.635Z,9.59
2022-10-11T04:13:42.758Z,9.64
2022-10-11T04:16:12.922Z,9.68
2022-10-11T04:18:43.077Z,9.50
2022-10-11T04:21:13.211Z,9.55
2022-10-11T04:23:43.322Z,9.60
2022-10-11T04:26:13.451Z,9.50
2022-10-11T04:28:43.644Z,9.51
2022-10-11T04:31:14.173Z,9.46
2022-10-11T04:33:44.387Z,9.50
2022-10-11T04:36:14.508Z,9.46
2022-10-11T04:38:44.663Z,9.45
2022-10-11T04:41:15.916Z,9.11
2022-10-11T04:43:46.027Z,9.23
2022-10-11T04:46:16.232Z,9.37
2022-10-11T04:48:46.365Z,9.26
2022-10-11T04:51:17.230Z,9.40
2022-10-11T04:53:49.166Z,9.37
2022-10-11T04:56:19.266Z,9.32
2022-10-11T04:58:49.665Z,9.41
2022-10-11T05:01:20.601Z,9.39
2022-10-11T05:03:50.760Z,9.29
2022-10-11T05:06:21.207Z,9.36
2022-10-11T05:08:51.233Z,9.35
2022-10-11T05:11:21.453Z,9.31
2022-10-11T05:13:51.727Z,9.23
2022-10-11T05:16:21.852Z,9.28
2022-10-11T05:18:52.016Z,9.25
2022-10-11T05:21:28.247Z,9.23
2022-10-11T05:23:58.675Z,9.14
2022-10-11T05:26:29.098Z,9.20
2022-10-11T05:28:59.297Z,9.19
2022-10-11T05:31:29.572Z,9.20
2022-10-11T05:34:00.926Z,9.18
2022-10-11T05:36:31.117Z,9.23
2022-10-11T05:39:01.163Z,9.18
2022-10-11T05:41:31.255Z,9.15
2022-10-11T05:44:01.322Z,9.10
2022-10-11T05:46:31.513Z,9.26
2022-10-11T05:49:01.626Z,9.10
2022-10-11T05:51:31.738Z,9.34
2022-10-11T05:54:01.839Z,9.07
2022-10-11T05:56:32.011Z,9.06
2022-10-11T05:59:02.633Z,9.30
2022-10-11T06:01:33.062Z,9.32
2022-10-11T06:04:04.981Z,9.14
2022-10-11T06:06:35.053Z,9.32
2022-10-11T06:09:05.251Z,9.32
2022-10-11T06:11:35.365Z,9.26
2022-10-11T06:14:05.434Z,9.31
2022-10-11T06:16:35.521Z,9.21
2022-10-11T06:19:05.749Z,9.29
2022-10-11T06:21:35.930Z,9.17
2022-10-11T06:24:07.505Z,9.31
2022-10-11T06:26:37.656Z,9.07
2022-10-11T06:29:07.859Z,9.30
2022-10-11T06:31:38.060Z,9.23
2022-10-11T06:34:08.176Z,9.44
2022-10-11T06:36:38.278Z,9.45
2022-10-11T06:39:08.394Z,9.41
2022-10-11T06:41:38.532Z,9.23
2022-10-11T06:44:14.181Z,9.48
2022-10-11T06:46:44.581Z,9.54
2022-10-11T06:49:18.238Z,9.59
2022-10-11T06:51:51.462Z,9.61
2022-10-11T06:54:21.699Z,9.61
2022-10-11T06:56:51.984Z,9.61
2022-10-11T06:59:22.131Z,9.25
2022-10-11T07:01:52.356Z,9.38
2022-10-11T07:04:22.536Z,9.37
2022-10-11T07:06:52.666Z,9.42
2022-10-11T07:09:22.934Z,9.54
2022-10-11T07:11:53.279Z,9.61
2022-10-11T07:14:23.398Z,9.69
2022-10-11T07:16:53.456Z,9.53
2022-10-11T07:19:23.685Z,9.74
2022-10-11T07:21:53.886Z,9.74
2022-10-11T07:24:24.065Z,9.84
2022-10-11T07:26:54.283Z,9.93
2022-10-11T07:29:24.539Z,9.86
2022-10-11T07:31:54.708Z,9.90
2022-10-11T07:34:24.878Z,9.95
2022-10-11T07:36:55.026Z,9.97
2022-10-11T07:39:25.210Z,10.03
2022-10-11T07:41:55.302Z,9.94
2022-10-11T07:44:25.698Z,9.97
2022-10-11T07:46:55.852Z,10.00
2022-10-11T07:49:25.950Z,9.97
2022-10-11T07:51:56.089Z,9.92
2022-10-11T07:54:26.275Z,9.90
2022-10-11T07:56:56.514Z,9.98
2022-10-11T07:59:26.679Z,9.98
2022-10-11T08:01:56.834Z,9.97
2022-10-11T08:04:27.066Z,9.81
2022-10-11T08:06:57.211Z,9.95
2022-10-11T08:09:27.326Z,9.99
2022-10-11T08:11:57.818Z,9.98
2022-10-11T08:14:28.094Z,10.07
2022-10-11T08:16:58.267Z,9.92
2022-10-11T08:19:28.436Z,10.08
2022-10-11T08:21:58.505Z,10.19
2022-10-11T08:24:28.683Z,10.21
2022-10-11T08:26:58.909Z,10.22
2022-10-11T08:29:29.096Z,10.21
2022-10-11T08:31:59.213Z,10.20
2022-10-11T08:34:29.490Z,10.25
2022-10-11T08:36:59.733Z,10.38
2022-10-11T08:39:30.161Z,10.33
2022-10-11T08:42:11.529Z,10.25
2022-10-11T08:45:09.485Z,10.50
2022-10-11T08:47:41.234Z,10.45
2022-10-11T08:50:19.956Z,10.54
2022-10-11T08:52:59.533Z,10.48
2022-10-11T08:55:29.695Z,10.54
2022-10-11T08:58:00.038Z,10.49
2022-10-11T09:00:34.136Z,10.49
2022-10-11T09:03:36.600Z,10.68
2022-10-11T09:06:07.563Z,10.71
2022-10-11T09:08:50.359Z,10.55
2022-10-11T09:11:32.824Z,10.83
2022-10-11T09:14:05.697Z,10.78
2022-10-11T09:16:54.270Z,10.79
2022-10-11T09:20:02.283Z,10.89
2022-10-11T09:22:48.145Z,10.92
2022-10-11T09:25:18.219Z,10.98
2022-10-11T09:28:20.221Z,11.00
2022-10-11T09:30:59.068Z,10.99
2022-10-11T09:33:34.887Z,11.00
2022-10-11T09:36:34.227Z,10.98
2022-10-11T09:39:34.199Z,10.82
2022-10-11T09:42:09.381Z,11.04
2022-10-11T09:44:45.555Z,11.12
2022-10-11T09:47:20.286Z,11.21
2022-10-11T09:50:03.500Z,11.18
2022-10-11T09:52:34.442Z,11.05
2022-10-11T09:55:04.900Z,11.22
2022-10-11T09:57:39.296Z,11.36
2022-10-11T10:00:12.287Z,11.43
2022-10-11T10:02:44.918Z,11.47
2022-10-11T10:05:18.863Z,11.52
2022-10-11T10:10:59.833Z,11.53
2022-10-11T10:13:51.618Z,11.61
2022-10-11T10:16:28.627Z,11.69
2022-10-11T10:19:03.623Z,11.74
2022-10-11T10:21:40.469Z,11.69
2022-10-11T10:24:39.455Z,11.80
2022-10-11T10:27:17.176Z,11.86
2022-10-11T10:30:02.739Z,11.95
2022-10-11T10:32:43.854Z,11.97
2022-10-11T10:35:43.153Z,12.07
2022-10-11T10:38:36.591Z,12.10
2022-10-11T10:41:10.927Z,12.11
2022-10-11T10:43:43.302Z,12.12
2022-10-11T10:46:37.067Z,12.19
2022-10-11T10:49:53.142Z,12.21
2022-10-11T10:52:44.158Z,12.22
2022-10-11T10:55:33.353Z,12.27
2022-10-11T10:58:16.457Z,12.26
2022-10-11T11:00:51.093Z,12.28
2022-10-11T11:03:33.668Z,12.33
2022-10-11T11:06:12.045Z,12.25
2022-10-11T11:08:55.288Z,12.12
2022-10-11T11:11:36.162Z,11.96
2022-10-11T11:14:18.349Z,11.95
2022-10-11T11:16:51.261Z,11.91
2022-10-11T11:19:36.444Z,11.84
2022-10-11T11:22:14.422Z,11.83
2022-10-11T11:24:50.780Z,11.82
2022-10-11T11:27:32.970Z,11.78
2022-10-11T11:30:12.049Z,11.76
2022-10-11T11:33:09.524Z,11.74
2022-10-11T11:35:44.207Z,11.63
2022-10-11T11:38:29.442Z,11.65
2022-10-11T11:41:05.427Z,11.64
2022-10-11T11:43:39.957Z,11.57
2022-10-11T11:46:18.854Z,11.70
2022-10-11T11:48:52.322Z,11.83
2022-10-11T11:51:31.333Z,11.84
2022-10-11T11:54:06.353Z,11.79
2022-10-11T11:57:04.801Z,11.81
2022-10-11T11:59:43.762Z,11.74
2022-10-11T12:02:31.471Z,11.71
2022-10-11T12:05:02.258Z,11.74
2022-10-11T12:07:46.152Z,11.80
2022-10-11T12:10:36.190Z,11.82
2022-10-11T12:13:32.478Z,11.95
2022-10-11T12:16:13.677Z,11.94
2022-10-11T12:19:01.094Z,12.06
2022-10-11T12:21:41.126Z,12.10
2022-10-11T12:24:20.541Z,12.27
2022-10-11T12:26:55.970Z,12.34
2022-10-11T12:29:41.742Z,12.42
2022-10-11T12:32:34.608Z,12.50
2022-10-11T12:35:32.563Z,12.56
2022-10-11T12:38:16.776Z,12.46
2022-10-11T12:40:49.049Z,12.46
2022-10-11T12:43:19.227Z,12.46
2022-10-11T12:45:49.681Z,12.42
2022-10-11T12:48:58.416Z,12.47
2022-10-11T12:51:42.025Z,12.56
2022-10-11T12:54:26.708Z,12.57
2022-10-11T12:57:22.118Z,12.55
2022-10-11T12:59:52.445Z,12.57
2022-10-11T13:02:29.038Z,12.55
2022-10-11T13:05:45.550Z,12.45
2022-10-11T13:08:23.782Z,12.45
2022-10-11T13:10:57.604Z,12.45
2022-10-11T13:13:45.271Z,12.41
2022-10-11T13:16:18.521Z,12.50
2022-10-11T13:18:54.171Z,12.53
2022-10-11T13:21:36.226Z,12.51
2022-10-11T13:24:17.078Z,12.38
2022-10-11T13:26:50.798Z,12.29
2022-10-11T13:29:35.495Z,12.17
2022-10-11T13:32:16.451Z,12.18
2022-10-11T13:34:49.843Z,12.07
2022-10-11T13:37:22.207Z,12.05
2022-10-11T13:39:55.570Z,11.96
2022-10-11T13:42:32.189Z,12.11
2022-10-11T13:45:02.556Z,12.08
2022-10-11T13:47:33.312Z,12.00
2022-10-11T13:50:15.549Z,12.01
2022-10-11T13:53:05.437Z,11.99
2022-10-11T13:55:48.576Z,12.06
2022-10-11T13:58:25.986Z,12.13
2022-10-11T14:01:02.874Z,12.19
2022-10-11T14:03:44.254Z,12.19
2022-10-11T14:06:15.007Z,12.34
2022-10-11T14:08:49.978Z,12.57
2022-10-11T14:11:38.261Z,12.69
2022-10-11T14:14:39.528Z,12.87
2022-10-11T14:17:16.276Z,12.87
2022-10-11T14:19:48.475Z,12.80
2022-10-11T14:22:19.439Z,12.86
2022-10-11T14:24:49.721Z,12.70
2022-10-11T14:27:27.061Z,12.63
2022-10-11T14:30:20.304Z,12.45
2022-10-11T14:32:51.246Z,12.58
2022-10-11T14:35:26.535Z,12.35
2022-10-11T14:37:56.849Z,12.35
2022-10-11T14:40:30.747Z,12.13
2022-10-11T14:43:00.913Z,12.01
2022-10-11T14:45:31.205Z,11.91
2022-10-11T14:48:01.564Z,11.83
2022-10-11T14:50:48.111Z,11.99
2022-10-11T14:53:18.558Z,12.03
2022-10-11T14:55:49.213Z,11.92
2022-10-11T14:58:19.403Z,11.88
2022-10-11T15:00:49.630Z,11.85
2022-10-11T15:03:19.981Z,11.76
2022-10-11T15:05:51.827Z,11.62
2022-10-11T15:08:21.924Z,11.67
2022-10-11T15:10:52.199Z,11.58
2022-10-11T15:13:22.818Z,11.56
2022-10-11T15:15:52.995Z,11.60
2022-10-11T15:18:23.358Z,11.70
2022-10-11T15:20:55.196Z,11.47
2022-10-11T15:23:25.455Z,11.45
2022-10-11T15:25:55.681Z,11.51
2022-10-11T15:28:32.049Z,11.44
2022-10-11T15:31:02.462Z,11.41
2022-10-11T15:33:32.593Z,11.44
2022-10-11T15:36:03.328Z,11.30
2022-10-11T15:38:33.667Z,11.23
2022-10-11T15:41:03.977Z,11.14
2022-10-11T15:43:34.625Z,11.10
2022-10-11T15:46:05.492Z,10.94
2022-10-11T15:48:35.871Z,10.91
2022-10-11T15:51:06.104Z,10.90
2022-10-11T15:53:36.700Z,10.87
2022-10-11T15:56:10.214Z,10.80
2022-10-11T15:58:41.729Z,10.83
2022-10-11T16:01:16.388Z,10.87
2022-10-11T16:03:49.131Z,10.70
2022-10-11T16:06:19.791Z,10.77
2022-10-11T16:08:50.293Z,10.75
2022-10-11T16:11:23.027Z,10.70
2022-10-11T16:13:54.110Z,10.67
2022-10-11T16:16:24.395Z,10.65
2022-10-11T16:18:54.835Z,10.67
2022-10-11T16:21:25.049Z,10.59
2022-10-11T16:23:55.244Z,10.54
2022-10-11T16:26:25.403Z,10.52
2022-10-11T16:28:56.910Z,10.55
2022-10-11T16:31:27.257Z,10.46
2022-10-11T16:33:58.150Z,10.44
2022-10-11T16:36:40.843Z,10.44
2022-10-11T16:39:14.630Z,10.40
2022-10-11T16:41:45.572Z,10.43
2022-10-11T16:44:19.201Z,10.44
2022-10-11T16:46:49.390Z,10.36
2022-10-11T16:49:23.033Z,10.38
2022-10-11T16:51:55.585Z,10.40
2022-10-11T16:54:30.537Z,10.29
2022-10-11T16:57:00.961Z,10.39
2022-10-11T16:59:31.160Z,10.29
2022-10-11T17:02:01.625Z,10.34
2022-10-11T17:04:34.710Z,10.32
2022-10-11T17:07:12.349Z,10.35
2022-10-11T17:09:44.519Z,10.30
2022-10-11T17:12:17.158Z,10.25
2022-10-11T17:14:47.891Z,10.25
2022-10-11T17:17:18.974Z,10.25
2022-10-11T17:19:49.269Z,10.23
2022-10-11T17:22:20.401Z,10.22
2022-10-11T17:24:50.635Z,10.28
2022-10-11T17:27:21.105Z,10.08
2022-10-11T17:29:51.302Z,10.16
2022-10-11T17:32:21.474Z,10.21
2022-10-11T17:34:51.661Z,9.93
2022-10-11T17:37:21.772Z,9.99
2022-10-11T17:39:52.013Z,9.91
2022-10-11T17:42:22.133Z,9.86
2022-10-11T17:44:52.320Z,9.76
2022-10-11T17:47:22.484Z,9.92
2022-10-11T17:49:52.610Z,9.92
2022-10-11T17:52:22.706Z,9.94
2022-10-11T17:54:52.923Z,9.93
2022-10-11T17:57:23.093Z,9.91
2022-10-11T17:59:53.444Z,9.86
2022-10-11T18:02:23.620Z,9.94
2022-10-11T18:04:53.828Z,9.91
2022-10-11T18:07:24.442Z,9.88
2022-10-11T18:09:54.856Z,9.91
2022-10-11T18:12:26.244Z,9.91
2022-10-11T18:14:56.445Z,9.81
2022-10-11T18:17:26.696Z,9.90
2022-10-11T18:19:56.860Z,9.89
2022-10-11T18:22:27.423Z,9.83
2022-10-11T18:24:57.595Z,9.79
2022-10-11T18:27:28.435Z,9.75
2022-10-11T18:29:58.582Z,9.77
2022-10-11T18:32:28.697Z,9.72
2022-10-11T18:34:59.957Z,9.59
2022-10-11T18:37:30.417Z,9.66
2022-10-11T18:40:00.828Z,9.66
2022-10-11T18:42:30.998Z,9.63
2022-10-11T18:45:01.158Z,9.55
2022-10-11T18:47:31.275Z,9.58
2022-10-11T18:50:01.488Z,9.51
2022-10-11T18:52:32.330Z,9.51
2022-10-11T18:55:05.227Z,9.49
2022-10-11T18:57:35.336Z,9.42
2022-10-11T19:00:16.859Z,9.47
2022-10-11T19:02:56.556Z,9.40
2022-10-11T19:05:27.878Z,9.42
2022-10-11T19:07:57.959Z,9.27
2022-10-11T19:10:28.273Z,9.36
2022-10-11T19:12:58.378Z,9.24
2022-10-11T19:15:29.002Z,9.28
2022-10-11T19:17:59.318Z,9.30
2022-10-11T19:20:29.551Z,9.28
2022-10-11T19:22:59.724Z,9.19
2022-10-11T19:25:30.068Z,9.24
2022-10-11T19:28:00.227Z,9.17
2022-10-11T19:30:32.332Z,9.21
2022-10-11T19:33:04.817Z,9.17
2022-10-11T19:35:35.006Z,9.04
2022-10-11T19:38:05.097Z,9.08
2022-10-11T19:40:38.704Z,9.06
2022-10-11T19:43:08.811Z,9.05
2022-10-11T19:45:38.911Z,9.04
2022-10-11T19:48:09.084Z,9.01
2022-10-11T19:50:39.176Z,8.91
2022-10-11T19:53:09.389Z,8.85
2022-10-11T19:55:43.048Z,8.91
2022-10-11T19:58:16.430Z,8.91
2022-10-11T20:00:46.577Z,8.90
2022-10-11T20:03:16.774Z,8.73
2022-10-11T20:05:46.883Z,8.80
2022-10-11T20:08:17.037Z,8.79
2022-10-11T20:10:47.705Z,8.77
2022-10-11T20:13:17.857Z,8.80
2022-10-11T20:15:49.419Z,8.72
2022-10-11T20:18:19.526Z,8.76
2022-10-11T20:20:58.152Z,8.70
2022-10-11T20:23:28.303Z,8.70
2022-10-11T20:26:07.650Z,8.66
2022-10-11T20:28:38.581Z,8.63
2022-10-11T20:31:17.543Z,8.54
2022-10-11T20:33:49.585Z,8.55
2022-10-11T20:36:21.652Z,8.54
2022-10-11T20:38:52.656Z,8.40
2022-10-11T20:41:27.472Z,8.44
2022-10-11T20:43:59.544Z,8.49
2022-10-11T20:46:32.786Z,8.44
2022-10-11T20:49:05.795Z,8.44
2022-10-11T20:51:37.955Z,8.43
2022-10-11T20:54:08.365Z,8.38
2022-10-11T20:56:39.072Z,8.40
2022-10-11T20:59:10.419Z,8.26
2022-10-11T21:01:41.898Z,8.30
2022-10-11T21:04:18.852Z,8.32
2022-10-11T21:06:49.467Z,8.29
2022-10-11T21:09:19.677Z,8.28
2022-10-11T21:11:49.804Z,8.25
2022-10-11T21:14:19.972Z,8.23
2022-10-11T21:16:50.157Z,8.20
2022-10-11T21:19:20.428Z,8.14
2022-10-11T21:21:53.677Z,8.10
2022-10-11T21:24:24.142Z,8.09
2022-10-11T21:26:59.561Z,8.12
2022-10-11T21:29:30.758Z,8.04
2022-10-11T21:32:01.158Z,8.07
2022-10-11T21:34:31.325Z,8.01
2022-10-11T21:37:01.487Z,7.93
2022-10-11T21:39:31.749Z,7.98
2022-10-11T21:42:01.894Z,7.98
2022-10-11T21:44:32.826Z,8.00
2022-10-11T21:47:07.500Z,7.96
2022-10-11T21:49:38.051Z,7.90
2022-10-11T21:52:09.645Z,7.94
2022-10-11T21:54:39.718Z,7.80
2022-10-11T21:57:09.915Z,7.86
2022-10-11T21:59:40.072Z,7.84
2022-10-11T22:02:10.557Z,7.83
2022-10-11T22:04:40.758Z,7.83
2022-10-11T22:07:10.905Z,7.79
2022-10-11T22:09:41.081Z,7.82
2022-10-11T22:12:11.196Z,7.74
2022-10-11T22:14:41.332Z,7.74
2022-10-11T22:17:11.452Z,7.71
2022-10-11T22:19:41.518Z,7.77
2022-10-11T22:22:11.841Z,7.78
2022-10-11T22:24:41.990Z,7.76
2022-10-11T22:27:12.086Z,7.77
2022-10-11T22:29:42.383Z,7.81
2022-10-11T22:32:12.827Z,7.82
2022-10-11T22:34:43.318Z,7.82
2022-10-11T22:37:13.439Z,7.88
2022-10-11T22:39:43.604Z,7.86
2022-10-11T22:42:13.799Z,7.88
2022-10-11T22:44:43.965Z,7.95
2022-10-11T22:47:14.087Z,7.93
2022-10-11T22:49:44.199Z,8.01
2022-10-11T22:52:14.862Z,7.97
2022-10-11T22:54:45.018Z,8.00
2022-10-11T22:57:15.204Z,7.99
2022-10-11T22:59:45.260Z,8.03
2022-10-11T23:02:15.470Z,8.04
2022-10-11T23:04:45.660Z,8.01
2022-10-11T23:07:15.759Z,7.96
2022-10-11T23:09:45.869Z,8.03
2022-10-11T23:12:16.081Z,8.04
2022-10-11T23:14:46.250Z,7.99
2022-10-11T23:17:16.402Z,8.00
2022-10-11T23:19:46.952Z,8.03
2022-10-11T23:22:17.090Z,8.02
2022-10-11T23:24:47.359Z,7.97
2022-10-11T23:27:17.560Z,8.02
2022-10-11T23:29:47.677Z,8.01
2022-10-11T23:32:17.742Z,7.95
2022-10-11T23:34:47.875Z,7.98
2022-10-11T23:37:18.245Z,7.95
2022-10-11T23:39:48.491Z,7.92
2022-10-11T23:42:18.621Z,7.90
2022-10-11T23:44:48.833Z,7.89
2022-10-11T23:47:18.977Z,7.88
2022-10-11T23:49:49.140Z,7.88
2022-10-11T23:52:19.218Z,7.87
2022-10-11T23:54:49.402Z,7.86
2022-10-11T23:57:19.558Z,7.83
2022-10-11T23:59:49.601Z,7.84
